createdAt,value
2018-11-06T00:00:13.299Z,42.58
2018-11-06T00:00:48.762Z,46.83
2018-11-06T00:01:21.358Z,44.55
2018-11-06T00:01:53.962Z,46.80
2018-11-06T00:02:26.595Z,42.17
2018-11-06T00:03:04.698Z,50.15
2018-11-06T00:03:42.975Z,47.23
2018-11-06T00:04:15.601Z,44.08
2018-11-06T00:04:53.743Z,43.28
2018-11-06T00:05:26.348Z,54.80
2018-11-06T00:05:58.959Z,44.73
2018-11-06T00:06:31.762Z,50.78
2018-11-06T00:07:04.362Z,44.70
2018-11-06T00:07:36.968Z,48.25
2018-11-06T00:08:09.584Z,51.42
2018-11-06T00:08:42.218Z,50.88
2018-11-06T00:09:14.872Z,42.65
2018-11-06T00:09:47.681Z,47.08
2018-11-06T00:10:20.274Z,43.00
2018-11-06T00:10:52.886Z,48.00
2018-11-06T00:11:25.519Z,44.20
2018-11-06T00:11:58.110Z,46.23
2018-11-06T00:12:30.720Z,46.60
2018-11-06T00:13:04.387Z,51.10
2018-11-06T00:13:37.360Z,50.00
2018-11-06T00:14:09.961Z,48.17
2018-11-06T00:14:42.565Z,45.83
2018-11-06T00:15:15.174Z,41.20
2018-11-06T00:15:47.816Z,47.08
2018-11-06T00:16:20.440Z,48.90
2018-11-06T00:16:53.031Z,39.80
2018-11-06T00:17:25.614Z,43.90
2018-11-06T00:17:58.195Z,50.58
2018-11-06T00:18:30.802Z,53.28
2018-11-06T00:19:03.421Z,48.05
2018-11-06T00:19:36.003Z,43.05
2018-11-06T00:20:10.691Z,52.65
2018-11-06T00:20:43.320Z,56.75
2018-11-06T00:21:15.929Z,48.28
2018-11-06T00:21:48.524Z,49.55
2018-11-06T00:22:21.201Z,44.48
2018-11-06T00:22:53.825Z,54.03
2018-11-06T00:23:26.410Z,49.75
2018-11-06T00:23:59.003Z,51.73
2018-11-06T00:24:31.619Z,43.13
2018-11-06T00:25:05.038Z,47.17
2018-11-06T00:25:37.656Z,44.35
2018-11-06T00:26:10.259Z,51.85
2018-11-06T00:26:42.890Z,54.53
2018-11-06T00:27:15.491Z,48.33
2018-11-06T00:27:48.162Z,49.98
2018-11-06T00:28:20.751Z,48.48
2018-11-06T00:28:53.386Z,45.95
2018-11-06T00:29:26.004Z,46.02
2018-11-06T00:29:58.600Z,49.50
2018-11-06T00:30:31.198Z,47.50
2018-11-06T00:31:03.837Z,48.17
2018-11-06T00:31:36.473Z,48.58
2018-11-06T00:32:09.095Z,47.23
2018-11-06T00:32:42.120Z,46.00
2018-11-06T00:33:14.732Z,50.65
2018-11-06T00:33:47.342Z,49.50
2018-11-06T00:34:19.976Z,46.88
2018-11-06T00:34:52.563Z,43.58
2018-11-06T00:35:25.134Z,49.30
2018-11-06T00:35:57.752Z,49.80
2018-11-06T00:36:30.334Z,45.45
2018-11-06T00:37:02.923Z,45.52
2018-11-06T00:37:35.531Z,46.45
2018-11-06T00:38:08.144Z,45.43
2018-11-06T00:38:40.792Z,56.53
2018-11-06T00:39:13.382Z,60.38
2018-11-06T00:39:45.980Z,50.98
2018-11-06T00:40:18.613Z,51.50
2018-11-06T00:40:51.202Z,47.65
2018-11-06T00:41:23.865Z,50.95
2018-11-06T00:41:56.454Z,44.73
2018-11-06T00:42:29.051Z,42.95
2018-11-06T00:43:01.686Z,47.05
2018-11-06T00:43:34.264Z,51.02
2018-11-06T00:44:07.070Z,47.75
2018-11-06T00:44:39.696Z,58.33
2018-11-06T00:45:13.634Z,51.63
2018-11-06T00:45:46.223Z,42.83
2018-11-06T00:46:18.815Z,46.50
2018-11-06T00:46:51.406Z,41.90
2018-11-06T00:47:23.992Z,47.60
2018-11-06T00:47:56.607Z,49.67
2018-11-06T00:48:29.229Z,44.45
2018-11-06T00:49:01.812Z,49.53
2018-11-06T00:49:34.454Z,49.80
2018-11-06T00:50:08.151Z,43.08
2018-11-06T00:50:40.764Z,47.78
2018-11-06T00:51:13.394Z,41.65
2018-11-06T00:51:45.984Z,45.98
2018-11-06T00:52:18.563Z,49.58
2018-11-06T00:52:51.168Z,46.37
2018-11-06T00:53:23.767Z,59.98
2018-11-06T00:53:56.371Z,49.27
2018-11-06T00:54:29.043Z,37.45
2018-11-06T00:55:01.844Z,48.33
2018-11-06T00:55:34.524Z,42.35
2018-11-06T00:56:07.156Z,40.58
2018-11-06T00:56:39.714Z,46.20
2018-11-06T00:57:12.315Z,47.55
2018-11-06T00:57:44.920Z,48.30
2018-11-06T00:58:17.556Z,45.43
2018-11-06T00:58:50.132Z,46.53
2018-11-06T00:59:22.726Z,43.52
2018-11-06T00:59:55.387Z,41.90
2018-11-06T01:00:28.073Z,43.02
2018-11-06T01:01:00.695Z,47.60
2018-11-06T01:01:33.287Z,48.58
2018-11-06T01:02:06.260Z,49.33
2018-11-06T01:02:38.887Z,41.68
2018-11-06T01:03:11.499Z,47.70
2018-11-06T01:03:48.873Z,49.05
2018-11-06T01:04:21.475Z,44.67
2018-11-06T01:04:54.052Z,40.60
2018-11-06T01:05:26.631Z,45.05
2018-11-06T01:05:59.256Z,40.48
2018-11-06T01:06:31.844Z,49.67
2018-11-06T01:07:04.612Z,46.65
2018-11-06T01:07:37.196Z,48.30
2018-11-06T01:08:09.787Z,50.83
2018-11-06T01:08:42.412Z,44.75
2018-11-06T01:09:15.872Z,48.70
2018-11-06T01:09:48.594Z,54.00
2018-11-06T01:10:21.220Z,40.55
2018-11-06T01:10:53.824Z,53.48
2018-11-06T01:11:26.623Z,43.52
2018-11-06T01:11:59.319Z,52.58
2018-11-06T01:12:31.892Z,41.08
2018-11-06T01:13:04.671Z,43.90
2018-11-06T01:13:37.248Z,43.95
2018-11-06T01:14:09.863Z,41.10
2018-11-06T01:14:42.508Z,44.50
2018-11-06T01:15:15.909Z,53.35
2018-11-06T01:15:48.553Z,44.65
2018-11-06T01:16:21.591Z,47.05
2018-11-06T01:16:54.222Z,46.33
2018-11-06T01:17:26.832Z,43.85
2018-11-06T01:17:59.399Z,46.60
2018-11-06T01:18:31.967Z,43.63
2018-11-06T01:19:04.870Z,46.37
2018-11-06T01:19:37.485Z,38.95
2018-11-06T01:20:12.320Z,41.40
2018-11-06T01:20:44.918Z,43.23
2018-11-06T01:21:17.485Z,50.25
2018-11-06T01:21:50.121Z,50.17
2018-11-06T01:22:23.552Z,48.40
2018-11-06T01:22:56.177Z,45.35
2018-11-06T01:23:28.745Z,44.05
2018-11-06T01:24:01.361Z,46.53
2018-11-06T01:24:33.990Z,50.83
2018-11-06T01:25:07.381Z,42.48
2018-11-06T01:25:39.960Z,41.25
2018-11-06T01:26:12.539Z,39.48
2018-11-06T01:26:45.106Z,40.88
2018-11-06T01:27:17.721Z,36.93
2018-11-06T01:27:50.360Z,43.28
2018-11-06T01:28:22.947Z,38.45
2018-11-06T01:28:55.581Z,45.30
2018-11-06T01:29:28.196Z,39.92
2018-11-06T01:30:00.783Z,39.65
2018-11-06T01:30:33.372Z,41.10
2018-11-06T01:31:05.986Z,41.42
2018-11-06T01:31:38.567Z,40.35
2018-11-06T01:32:11.171Z,34.83
2018-11-06T01:32:44.547Z,45.30
2018-11-06T01:33:17.155Z,43.98
2018-11-06T01:33:49.719Z,45.03
2018-11-06T01:34:22.307Z,46.77
2018-11-06T01:34:54.906Z,44.88
2018-11-06T01:35:27.503Z,46.18
2018-11-06T01:36:00.137Z,36.88
2018-11-06T01:36:32.713Z,43.58
2018-11-06T01:37:05.354Z,37.83
2018-11-06T01:37:37.918Z,37.13
2018-11-06T01:38:10.529Z,44.85
2018-11-06T01:38:43.154Z,47.23
2018-11-06T01:39:15.719Z,38.73
2018-11-06T01:39:48.316Z,35.45
2018-11-06T01:40:20.896Z,46.20
2018-11-06T01:40:53.470Z,44.35
2018-11-06T01:41:26.039Z,40.55
2018-11-06T01:41:58.648Z,36.13
2018-11-06T01:42:31.211Z,36.00
2018-11-06T01:43:03.822Z,37.25
2018-11-06T01:43:36.410Z,37.30
2018-11-06T01:44:09.061Z,40.98
2018-11-06T01:44:41.654Z,42.35
2018-11-06T01:45:15.584Z,38.40
2018-11-06T01:45:48.315Z,33.78
2018-11-06T01:46:20.952Z,35.40
2018-11-06T01:46:53.553Z,44.40
2018-11-06T01:47:26.130Z,41.33
2018-11-06T01:47:58.715Z,42.03
2018-11-06T01:48:31.284Z,31.55
2018-11-06T01:49:03.906Z,46.42
2018-11-06T01:49:36.499Z,42.93
2018-11-06T01:50:11.659Z,34.40
2018-11-06T01:50:44.222Z,34.25
2018-11-06T01:51:16.791Z,40.10
2018-11-06T01:51:49.397Z,35.08
2018-11-06T01:52:21.967Z,35.38
2018-11-06T01:52:54.530Z,41.02
2018-11-06T01:53:27.138Z,33.92
2018-11-06T01:53:59.717Z,36.30
2018-11-06T01:54:32.280Z,37.10
2018-11-06T01:55:05.414Z,35.63
2018-11-06T01:55:37.986Z,38.63
2018-11-06T01:56:10.601Z,33.08
2018-11-06T01:56:43.158Z,36.77
2018-11-06T01:57:15.772Z,34.43
2018-11-06T01:57:48.369Z,34.48
2018-11-06T01:58:20.950Z,31.97
2018-11-06T01:58:53.588Z,35.52
2018-11-06T01:59:26.216Z,35.73
2018-11-06T01:59:58.838Z,37.75
2018-11-06T02:00:31.485Z,34.67
2018-11-06T02:01:04.211Z,38.33
2018-11-06T02:01:36.787Z,42.27
2018-11-06T02:02:09.398Z,35.00
2018-11-06T02:02:41.999Z,34.43
2018-11-06T02:03:14.584Z,34.63
2018-11-06T02:03:47.172Z,30.43
2018-11-06T02:04:19.763Z,38.53
2018-11-06T02:04:52.367Z,33.95
2018-11-06T02:05:24.932Z,31.70
2018-11-06T02:05:57.551Z,36.73
2018-11-06T02:06:30.114Z,37.63
2018-11-06T02:07:02.719Z,33.75
2018-11-06T02:07:35.396Z,32.23
2018-11-06T02:08:07.963Z,45.52
2018-11-06T02:08:40.589Z,32.95
2018-11-06T02:09:13.205Z,32.35
2018-11-06T02:09:45.766Z,31.30
2018-11-06T02:10:18.426Z,33.15
2018-11-06T02:10:50.990Z,29.82
2018-11-06T02:11:23.672Z,35.45
2018-11-06T02:11:56.252Z,38.83
2018-11-06T02:12:28.895Z,32.80
2018-11-06T02:13:01.499Z,34.67
2018-11-06T02:13:34.062Z,32.00
2018-11-06T02:14:06.790Z,34.63
2018-11-06T02:14:39.387Z,33.95
2018-11-06T02:15:12.052Z,35.88
2018-11-06T02:15:44.671Z,39.85
2018-11-06T02:16:17.277Z,32.55
2018-11-06T02:16:49.879Z,34.35
2018-11-06T02:17:22.486Z,39.10
2018-11-06T02:17:55.055Z,34.53
2018-11-06T02:18:27.624Z,32.55
2018-11-06T02:19:00.244Z,34.10
2018-11-06T02:19:32.826Z,31.45
2018-11-06T02:20:05.650Z,31.93
2018-11-06T02:20:38.234Z,29.40
2018-11-06T02:21:11.096Z,33.38
2018-11-06T02:21:43.730Z,34.67
2018-11-06T02:22:16.356Z,32.25
2018-11-06T02:22:48.963Z,36.60
2018-11-06T02:23:21.542Z,34.23
2018-11-06T02:23:54.159Z,39.45
2018-11-06T02:24:26.734Z,30.95
2018-11-06T02:24:59.335Z,29.52
2018-11-06T02:25:31.941Z,39.70
2018-11-06T02:26:04.550Z,35.73
2018-11-06T02:26:37.173Z,32.08
2018-11-06T02:27:09.780Z,32.53
2018-11-06T02:27:42.390Z,28.23
2018-11-06T02:28:14.969Z,32.23
2018-11-06T02:28:47.560Z,32.45
2018-11-06T02:29:20.139Z,34.15
2018-11-06T02:29:52.791Z,32.45
2018-11-06T02:30:25.428Z,29.57
2018-11-06T02:30:57.996Z,29.40
2018-11-06T02:31:30.620Z,31.02
2018-11-06T02:32:03.271Z,30.00
2018-11-06T02:32:36.014Z,25.30
2018-11-06T02:33:08.579Z,31.20
2018-11-06T02:33:41.188Z,29.05
2018-11-06T02:34:14.178Z,30.23
2018-11-06T02:34:46.760Z,33.28
2018-11-06T02:35:19.392Z,32.60
2018-11-06T02:35:52.013Z,33.90
2018-11-06T02:36:24.585Z,40.95
2018-11-06T02:36:57.156Z,33.65
2018-11-06T02:37:29.768Z,34.65
2018-11-06T02:38:02.351Z,25.92
2018-11-06T02:38:34.954Z,40.48
2018-11-06T02:39:08.689Z,27.95
2018-11-06T02:39:41.307Z,30.88
2018-11-06T02:40:15.016Z,29.75
2018-11-06T02:40:47.587Z,27.90
2018-11-06T02:41:20.216Z,34.58
2018-11-06T02:41:52.787Z,34.25
2018-11-06T02:42:25.398Z,33.33
2018-11-06T02:42:57.990Z,33.92
2018-11-06T02:43:30.552Z,35.05
2018-11-06T02:44:03.192Z,29.27
2018-11-06T02:44:35.763Z,30.65
2018-11-06T02:45:09.202Z,32.17
2018-11-06T02:45:41.806Z,29.95
2018-11-06T02:46:14.402Z,28.10
2018-11-06T02:46:47.011Z,37.20
2018-11-06T02:47:19.614Z,28.57
2018-11-06T02:47:52.178Z,35.50
2018-11-06T02:48:24.748Z,29.70
2018-11-06T02:48:57.320Z,37.25
2018-11-06T02:49:29.981Z,33.45
2018-11-06T02:50:02.680Z,30.43
2018-11-06T02:50:35.306Z,36.70
2018-11-06T02:51:07.917Z,30.17
2018-11-06T02:51:40.495Z,31.15
2018-11-06T02:52:13.063Z,31.20
2018-11-06T02:52:45.636Z,30.97
2018-11-06T02:53:18.283Z,31.75
2018-11-06T02:53:50.896Z,30.32
2018-11-06T02:54:23.506Z,29.18
2018-11-06T02:54:56.099Z,28.98
2018-11-06T02:55:28.666Z,32.40
2018-11-06T02:56:01.338Z,33.20
2018-11-06T02:56:33.874Z,29.92
2018-11-06T02:57:06.504Z,35.70
2018-11-06T02:57:39.487Z,28.32
2018-11-06T02:58:12.047Z,33.65
2018-11-06T02:58:44.611Z,30.60
2018-11-06T02:59:17.189Z,34.43
2018-11-06T02:59:49.763Z,23.87
2018-11-06T03:00:22.371Z,29.82
2018-11-06T03:00:54.962Z,31.93
2018-11-06T03:01:27.530Z,23.52
2018-11-06T03:02:00.123Z,28.27
2018-11-06T03:02:32.702Z,30.27
2018-11-06T03:03:05.415Z,28.73
2018-11-06T03:03:38.847Z,29.57
2018-11-06T03:04:11.468Z,36.15
2018-11-06T03:04:44.039Z,26.42
2018-11-06T03:05:16.648Z,33.18
2018-11-06T03:05:49.292Z,32.75
2018-11-06T03:06:21.907Z,32.28
2018-11-06T03:06:54.515Z,26.97
2018-11-06T03:07:27.083Z,38.00
2018-11-06T03:07:59.686Z,28.32
2018-11-06T03:08:32.271Z,25.10
2018-11-06T03:09:06.223Z,31.73
2018-11-06T03:09:38.798Z,31.35
2018-11-06T03:10:12.362Z,29.95
2018-11-06T03:10:44.927Z,26.75
2018-11-06T03:11:17.535Z,30.27
2018-11-06T03:11:50.131Z,29.48
2018-11-06T03:12:22.722Z,26.70
2018-11-06T03:12:55.322Z,29.57
2018-11-06T03:13:27.956Z,33.55
2018-11-06T03:14:00.502Z,24.10
2018-11-06T03:14:33.121Z,33.70
2018-11-06T03:15:06.311Z,31.93
2018-11-06T03:15:38.886Z,28.75
2018-11-06T03:16:11.484Z,30.52
2018-11-06T03:16:44.147Z,28.70
2018-11-06T03:17:16.699Z,23.50
2018-11-06T03:17:49.255Z,28.38
2018-11-06T03:18:21.819Z,28.17
2018-11-06T03:18:54.432Z,28.00
2018-11-06T03:19:27.000Z,26.77
2018-11-06T03:19:59.613Z,24.15
2018-11-06T03:20:32.202Z,27.62
2018-11-06T03:21:04.829Z,37.58
2018-11-06T03:21:37.404Z,26.95
2018-11-06T03:22:10.060Z,26.37
2018-11-06T03:22:43.227Z,33.67
2018-11-06T03:23:15.842Z,26.68
2018-11-06T03:23:48.407Z,37.53
2018-11-06T03:24:20.977Z,25.52
2018-11-06T03:24:53.551Z,24.30
2018-11-06T03:25:26.123Z,26.12
2018-11-06T03:25:58.699Z,30.43
2018-11-06T03:26:31.318Z,32.85
2018-11-06T03:27:04.028Z,26.87
2018-11-06T03:27:36.574Z,30.32
2018-11-06T03:28:09.158Z,29.30
2018-11-06T03:28:41.723Z,29.95
2018-11-06T03:29:14.283Z,25.25
2018-11-06T03:29:46.905Z,25.85
2018-11-06T03:30:19.535Z,25.88
2018-11-06T03:30:52.114Z,25.20
2018-11-06T03:31:24.727Z,28.55
2018-11-06T03:31:57.328Z,25.37
2018-11-06T03:32:30.009Z,25.00
2018-11-06T03:33:02.623Z,24.45
2018-11-06T03:33:35.226Z,27.17
2018-11-06T03:34:07.840Z,28.27
2018-11-06T03:34:40.461Z,28.02
2018-11-06T03:35:13.840Z,25.08
2018-11-06T03:35:46.397Z,25.68
2018-11-06T03:36:18.946Z,28.15
2018-11-06T03:36:51.572Z,24.00
2018-11-06T03:37:24.188Z,29.23
2018-11-06T03:37:56.769Z,29.95
2018-11-06T03:38:29.439Z,25.60
2018-11-06T03:39:02.011Z,33.98
2018-11-06T03:39:34.651Z,22.93
2018-11-06T03:40:07.802Z,26.93
2018-11-06T03:40:40.405Z,27.87
2018-11-06T03:41:12.994Z,28.95
2018-11-06T03:41:45.606Z,26.90
2018-11-06T03:42:18.197Z,26.52
2018-11-06T03:42:50.783Z,22.35
2018-11-06T03:43:23.404Z,31.10
2018-11-06T03:43:56.036Z,27.00
2018-11-06T03:44:28.620Z,26.15
2018-11-06T03:45:01.236Z,34.98
2018-11-06T03:45:33.845Z,29.75
2018-11-06T03:46:06.462Z,26.37
2018-11-06T03:46:39.063Z,23.18
2018-11-06T03:47:11.623Z,26.23
2018-11-06T03:47:44.210Z,26.68
2018-11-06T03:48:16.794Z,26.57
2018-11-06T03:48:49.404Z,22.77
2018-11-06T03:49:22.036Z,26.10
2018-11-06T03:49:54.618Z,22.48
2018-11-06T03:50:27.210Z,24.02
2018-11-06T03:50:59.806Z,26.70
2018-11-06T03:51:32.407Z,26.20
2018-11-06T03:52:05.179Z,25.62
2018-11-06T03:52:37.750Z,26.87
2018-11-06T03:53:10.335Z,27.52
2018-11-06T03:53:42.965Z,30.25
2018-11-06T03:54:15.679Z,28.70
2018-11-06T03:54:48.311Z,27.10
2018-11-06T03:55:20.915Z,25.10
2018-11-06T03:55:53.495Z,27.70
2018-11-06T03:56:26.117Z,27.30
2018-11-06T03:56:58.717Z,30.05
2018-11-06T03:57:31.326Z,33.08
2018-11-06T03:58:03.942Z,26.48
2018-11-06T03:58:36.725Z,29.75
2018-11-06T03:59:09.343Z,28.30
2018-11-06T03:59:41.921Z,29.48
2018-11-06T04:00:15.059Z,31.10
2018-11-06T04:00:47.677Z,31.25
2018-11-06T04:01:20.256Z,29.60
2018-11-06T04:01:52.831Z,27.10
2018-11-06T04:02:25.432Z,27.98
2018-11-06T04:02:58.002Z,32.75
2018-11-06T04:03:30.595Z,28.38
2018-11-06T04:04:03.198Z,28.07
2018-11-06T04:04:35.820Z,27.62
2018-11-06T04:05:08.937Z,30.75
2018-11-06T04:05:41.566Z,22.42
2018-11-06T04:06:14.192Z,25.20
2018-11-06T04:06:46.762Z,31.12
2018-11-06T04:07:19.377Z,27.67
2018-11-06T04:07:51.978Z,32.25
2018-11-06T04:08:24.582Z,25.97
2018-11-06T04:08:57.157Z,28.25
2018-11-06T04:09:29.779Z,23.60
2018-11-06T04:10:02.588Z,26.62
2018-11-06T04:10:35.202Z,35.00
2018-11-06T04:11:08.121Z,36.75
2018-11-06T04:11:41.214Z,29.02
2018-11-06T04:12:13.815Z,28.47
2018-11-06T04:12:46.431Z,21.87
2018-11-06T04:13:19.003Z,26.80
2018-11-06T04:13:51.566Z,29.30
2018-11-06T04:14:24.177Z,25.20
2018-11-06T04:14:56.739Z,28.30
2018-11-06T04:15:29.330Z,24.47
2018-11-06T04:16:01.952Z,28.55
2018-11-06T04:16:34.604Z,24.85
2018-11-06T04:17:07.227Z,28.47
2018-11-06T04:17:40.103Z,27.45
2018-11-06T04:18:12.684Z,30.92
2018-11-06T04:18:45.295Z,24.12
2018-11-06T04:19:17.915Z,30.10
2018-11-06T04:19:50.488Z,33.78
2018-11-06T04:20:23.092Z,23.40
2018-11-06T04:20:55.708Z,28.50
2018-11-06T04:21:33.840Z,27.82
2018-11-06T04:22:06.488Z,24.75
2018-11-06T04:22:39.750Z,32.88
2018-11-06T04:23:12.365Z,30.55
2018-11-06T04:23:44.940Z,26.10
2018-11-06T04:24:17.526Z,24.40
2018-11-06T04:24:50.131Z,28.55
2018-11-06T04:25:22.702Z,31.40
2018-11-06T04:25:55.307Z,32.38
2018-11-06T04:26:27.875Z,29.48
2018-11-06T04:27:00.483Z,26.50
2018-11-06T04:27:33.077Z,27.22
2018-11-06T04:28:05.775Z,30.65
2018-11-06T04:28:38.391Z,23.35
2018-11-06T04:29:11.010Z,29.98
2018-11-06T04:29:43.599Z,25.45
2018-11-06T04:30:16.204Z,30.17
2018-11-06T04:30:48.802Z,26.55
2018-11-06T04:31:21.420Z,25.25
2018-11-06T04:31:54.007Z,30.20
2018-11-06T04:32:26.591Z,31.05
2018-11-06T04:32:59.186Z,28.35
2018-11-06T04:33:31.849Z,27.40
2018-11-06T04:34:04.780Z,31.97
2018-11-06T04:34:37.370Z,22.30
2018-11-06T04:35:10.623Z,28.95
2018-11-06T04:35:43.223Z,28.00
2018-11-06T04:36:15.795Z,29.32
2018-11-06T04:36:48.387Z,29.10
2018-11-06T04:37:20.997Z,26.50
2018-11-06T04:37:53.583Z,26.80
2018-11-06T04:38:26.229Z,28.20
2018-11-06T04:38:59.310Z,23.80
2018-11-06T04:39:31.902Z,30.32
2018-11-06T04:40:05.487Z,27.10
2018-11-06T04:40:38.078Z,25.72
2018-11-06T04:41:10.680Z,31.48
2018-11-06T04:41:43.328Z,27.93
2018-11-06T04:42:15.926Z,29.63
2018-11-06T04:42:48.503Z,28.87
2018-11-06T04:43:21.106Z,26.50
2018-11-06T04:43:53.745Z,22.70
2018-11-06T04:44:26.338Z,30.00
2018-11-06T04:44:58.966Z,31.97
2018-11-06T04:45:31.590Z,25.45
2018-11-06T04:46:04.539Z,28.65
2018-11-06T04:46:37.107Z,30.88
2018-11-06T04:47:09.683Z,29.77
2018-11-06T04:47:42.503Z,32.20
2018-11-06T04:48:15.082Z,28.95
2018-11-06T04:48:47.738Z,29.30
2018-11-06T04:49:20.343Z,23.80
2018-11-06T04:49:53.263Z,25.82
2018-11-06T04:50:25.835Z,32.50
2018-11-06T04:50:58.457Z,28.20
2018-11-06T04:51:31.066Z,32.28
2018-11-06T04:52:03.825Z,37.88
2018-11-06T04:52:36.460Z,34.18
2018-11-06T04:53:09.039Z,33.00
2018-11-06T04:53:41.654Z,27.02
2018-11-06T04:54:14.265Z,25.23
2018-11-06T04:54:46.846Z,26.90
2018-11-06T04:55:19.431Z,36.60
2018-11-06T04:55:51.991Z,28.98
2018-11-06T04:56:24.599Z,29.65
2018-11-06T04:56:57.206Z,27.20
2018-11-06T04:57:29.919Z,28.25
2018-11-06T04:58:02.523Z,23.52
2018-11-06T04:58:35.106Z,26.17
2018-11-06T04:59:07.744Z,26.73
2018-11-06T04:59:40.346Z,27.75
2018-11-06T05:00:14.186Z,25.25
2018-11-06T05:00:46.759Z,31.77
2018-11-06T05:01:19.406Z,25.50
2018-11-06T05:01:52.039Z,23.55
2018-11-06T05:02:24.628Z,27.45
2018-11-06T05:02:57.215Z,25.45
2018-11-06T05:03:29.807Z,19.23
2018-11-06T05:04:02.415Z,25.95
2018-11-06T05:04:35.023Z,23.95
2018-11-06T05:05:08.164Z,26.27
2018-11-06T05:05:40.782Z,23.32
2018-11-06T05:06:13.790Z,25.55
2018-11-06T05:06:46.409Z,30.30
2018-11-06T05:07:18.977Z,23.40
2018-11-06T05:07:51.551Z,21.50
2018-11-06T05:08:24.134Z,25.20
2018-11-06T05:08:56.734Z,28.07
2018-11-06T05:09:29.314Z,20.85
2018-11-06T05:10:02.747Z,27.65
2018-11-06T05:10:35.312Z,20.10
2018-11-06T05:11:07.969Z,25.77
2018-11-06T05:11:40.534Z,26.93
2018-11-06T05:12:13.184Z,21.05
2018-11-06T05:12:45.777Z,22.32
2018-11-06T05:13:18.404Z,23.10
2018-11-06T05:13:51.037Z,23.52
2018-11-06T05:14:23.665Z,22.98
2018-11-06T05:14:56.216Z,25.55
2018-11-06T05:15:28.821Z,23.20
2018-11-06T05:16:01.374Z,22.15
2018-11-06T05:16:33.974Z,28.57
2018-11-06T05:17:06.566Z,24.43
2018-11-06T05:17:39.149Z,24.35
2018-11-06T05:18:11.722Z,26.55
2018-11-06T05:18:44.336Z,28.80
2018-11-06T05:19:16.929Z,28.23
2018-11-06T05:19:49.548Z,26.73
2018-11-06T05:20:22.139Z,27.62
2018-11-06T05:20:54.742Z,20.77
2018-11-06T05:21:27.319Z,23.40
2018-11-06T05:21:59.911Z,21.05
2018-11-06T05:22:32.455Z,27.55
2018-11-06T05:23:05.066Z,24.32
2018-11-06T05:23:37.639Z,26.27
2018-11-06T05:24:10.233Z,24.47
2018-11-06T05:24:42.814Z,26.75
2018-11-06T05:25:15.690Z,28.47
2018-11-06T05:25:48.244Z,23.12
2018-11-06T05:26:20.827Z,30.10
2018-11-06T05:26:53.442Z,24.20
2018-11-06T05:27:26.121Z,21.15
2018-11-06T05:27:58.684Z,22.65
2018-11-06T05:28:31.255Z,23.05
2018-11-06T05:29:03.855Z,20.92
2018-11-06T05:29:36.452Z,31.65
2018-11-06T05:30:10.076Z,23.35
2018-11-06T05:30:42.675Z,23.62
2018-11-06T05:31:15.259Z,22.30
2018-11-06T05:31:47.843Z,20.97
2018-11-06T05:32:20.424Z,24.47
2018-11-06T05:32:53.077Z,40.55
2018-11-06T05:33:25.962Z,24.05
2018-11-06T05:33:58.546Z,24.15
2018-11-06T05:34:31.147Z,24.20
2018-11-06T05:35:04.306Z,24.75
2018-11-06T05:35:36.920Z,26.27
2018-11-06T05:36:09.476Z,27.17
2018-11-06T05:36:42.035Z,27.48
2018-11-06T05:37:14.639Z,25.02
2018-11-06T05:37:47.214Z,24.75
2018-11-06T05:38:19.801Z,26.48
2018-11-06T05:38:52.388Z,30.17
2018-11-06T05:39:25.086Z,31.02
2018-11-06T05:40:08.887Z,23.98
2018-11-06T05:40:50.672Z,32.58
2018-11-06T05:41:23.278Z,24.55
2018-11-06T05:41:55.859Z,22.80
2018-11-06T05:42:28.481Z,19.45
2018-11-06T05:43:01.055Z,26.82
2018-11-06T05:43:34.094Z,24.57
2018-11-06T05:44:06.717Z,20.12
2018-11-06T05:44:39.271Z,27.13
2018-11-06T05:45:11.866Z,27.98
2018-11-06T05:45:44.520Z,21.57
2018-11-06T05:46:17.095Z,24.37
2018-11-06T05:46:49.659Z,23.22
2018-11-06T05:47:22.292Z,24.20
2018-11-06T05:47:54.921Z,23.45
2018-11-06T05:48:27.478Z,25.23
2018-11-06T05:49:00.075Z,24.95
2018-11-06T05:49:32.688Z,23.12
2018-11-06T05:50:05.312Z,22.65
2018-11-06T05:50:37.888Z,27.77
2018-11-06T05:51:10.516Z,23.10
2018-11-06T05:51:43.118Z,27.20
2018-11-06T05:52:15.691Z,22.52
2018-11-06T05:52:48.308Z,27.50
2018-11-06T05:53:21.059Z,23.18
2018-11-06T05:53:53.623Z,29.40
2018-11-06T05:54:26.252Z,22.22
2018-11-06T05:54:58.828Z,28.75
2018-11-06T05:55:31.437Z,29.95
2018-11-06T05:56:04.379Z,29.65
2018-11-06T05:56:36.946Z,21.37
2018-11-06T05:57:09.531Z,24.70
2018-11-06T05:57:42.136Z,24.12
2018-11-06T05:58:14.683Z,30.43
2018-11-06T05:58:47.299Z,35.90
2018-11-06T05:59:19.906Z,26.40
2018-11-06T05:59:52.526Z,27.80
2018-11-06T06:00:25.153Z,25.90
2018-11-06T06:00:57.714Z,29.60
2018-11-06T06:01:30.340Z,27.73
2018-11-06T06:02:02.926Z,23.05
2018-11-06T06:02:35.495Z,27.67
2018-11-06T06:03:08.079Z,26.70
2018-11-06T06:03:40.666Z,24.92
2018-11-06T06:04:13.286Z,24.70
2018-11-06T06:04:45.842Z,23.45
2018-11-06T06:05:18.434Z,24.57
2018-11-06T06:05:50.999Z,26.02
2018-11-06T06:06:23.558Z,25.97
2018-11-06T06:06:56.188Z,30.25
2018-11-06T06:07:28.780Z,22.45
2018-11-06T06:08:01.358Z,38.60
2018-11-06T06:08:33.953Z,25.08
2018-11-06T06:09:07.078Z,24.80
2018-11-06T06:09:39.626Z,22.60
2018-11-06T06:10:12.223Z,27.65
2018-11-06T06:10:44.858Z,22.55
2018-11-06T06:11:17.464Z,31.23
2018-11-06T06:11:50.060Z,29.07
2018-11-06T06:12:22.675Z,30.32
2018-11-06T06:12:55.235Z,25.60
2018-11-06T06:13:27.839Z,31.85
2018-11-06T06:14:00.402Z,31.77
2018-11-06T06:14:32.987Z,34.50
2018-11-06T06:15:06.659Z,34.38
2018-11-06T06:15:39.295Z,34.48
2018-11-06T06:16:11.976Z,30.48
2018-11-06T06:16:44.610Z,44.05
2018-11-06T06:17:17.243Z,38.10
2018-11-06T06:17:49.775Z,27.93
2018-11-06T06:18:22.392Z,40.15
2018-11-06T06:18:55.017Z,30.52
2018-11-06T06:19:27.620Z,47.17
2018-11-06T06:20:00.236Z,40.88
2018-11-06T06:20:32.818Z,34.40
2018-11-06T06:21:05.412Z,35.78
2018-11-06T06:21:38.051Z,44.50
2018-11-06T06:22:10.648Z,42.65
2018-11-06T06:22:43.350Z,38.50
2018-11-06T06:23:15.874Z,30.12
2018-11-06T06:23:48.497Z,37.63
2018-11-06T06:24:21.107Z,33.38
2018-11-06T06:24:53.720Z,38.23
2018-11-06T06:25:26.273Z,22.07
2018-11-06T06:25:58.834Z,36.90
2018-11-06T06:26:31.574Z,30.55
2018-11-06T06:27:04.326Z,27.80
2018-11-06T06:27:36.931Z,28.25
2018-11-06T06:28:09.522Z,28.47
2018-11-06T06:28:42.133Z,26.17
2018-11-06T06:29:14.728Z,36.55
2018-11-06T06:29:47.340Z,29.50
2018-11-06T06:30:19.940Z,29.40
2018-11-06T06:30:52.566Z,25.88
2018-11-06T06:31:25.147Z,30.12
2018-11-06T06:31:57.764Z,28.17
2018-11-06T06:32:30.440Z,29.67
2018-11-06T06:33:03.033Z,28.05
2018-11-06T06:33:35.720Z,51.45
2018-11-06T06:34:08.336Z,47.53
2018-11-06T06:34:41.003Z,52.65
2018-11-06T06:35:13.559Z,33.65
2018-11-06T06:35:46.128Z,41.05
2018-11-06T06:36:18.838Z,26.87
2018-11-06T06:36:51.438Z,30.77
2018-11-06T06:37:24.027Z,25.37
2018-11-06T06:37:56.651Z,28.17
2018-11-06T06:38:29.285Z,29.45
2018-11-06T06:39:01.923Z,29.75
2018-11-06T06:39:34.522Z,29.55
2018-11-06T06:40:10.399Z,27.55
2018-11-06T06:40:42.931Z,32.73
2018-11-06T06:41:15.510Z,23.35
2018-11-06T06:41:48.099Z,26.02
2018-11-06T06:42:20.701Z,24.32
2018-11-06T06:42:53.267Z,26.35
2018-11-06T06:43:25.877Z,26.17
2018-11-06T06:43:58.451Z,28.02
2018-11-06T06:44:31.034Z,26.55
2018-11-06T06:45:04.152Z,31.30
2018-11-06T06:45:36.714Z,26.12
2018-11-06T06:46:09.357Z,21.48
2018-11-06T06:46:41.952Z,34.58
2018-11-06T06:47:14.524Z,35.35
2018-11-06T06:47:47.192Z,25.05
2018-11-06T06:48:19.754Z,25.77
2018-11-06T06:48:52.407Z,37.08
2018-11-06T06:49:25.013Z,31.68
2018-11-06T06:49:57.599Z,27.55
2018-11-06T06:50:30.172Z,25.62
2018-11-06T06:51:02.780Z,27.85
2018-11-06T06:51:35.378Z,24.98
2018-11-06T06:52:07.979Z,30.45
2018-11-06T06:52:41.086Z,27.67
2018-11-06T06:53:13.696Z,30.20
2018-11-06T06:53:46.293Z,29.45
2018-11-06T06:54:19.025Z,26.60
2018-11-06T06:54:51.511Z,25.57
2018-11-06T06:55:24.125Z,29.90
2018-11-06T06:55:56.699Z,28.67
2018-11-06T06:56:29.270Z,27.73
2018-11-06T06:57:01.859Z,26.12
2018-11-06T06:57:34.697Z,28.25
2018-11-06T06:58:07.262Z,23.40
2018-11-06T06:58:39.859Z,25.32
2018-11-06T06:59:12.443Z,27.60
2018-11-06T06:59:45.043Z,35.55
2018-11-06T07:00:18.937Z,29.37
2018-11-06T07:00:51.537Z,27.32
2018-11-06T07:01:24.166Z,27.45